sensor_id;sensor_type;location;lat;lon;timestamp;P1;durP1;ratioP1;P2;durP2;ratioP2
72205;SDS011;60111;48.286;7.812;2023-02-01T00:00:59;12.58;;;8.25;;
72205;SDS011;60111;48.286;7.812;2023-02-01T00:03:33;11.38;;;7.92;;
72205;SDS011;60111;48.286;7.812;2023-02-01T00:06:05;13.32;;;8.40;;
72205;SDS011;60111;48.286;7.812;2023-02-01T00:08:38;17.35;;;9.40;;
72205;SDS011;60111;48.286;7.812;2023-02-01T00:11:11;13.25;;;9.18;;
72205;SDS011;60111;48.286;7.812;2023-02-01T00:13:44;12.97;;;8.40;;
72205;SDS011;60111;48.286;7.812;2023-02-01T00:16:18;12.05;;;8.50;;
72205;SDS011;60111;48.286;7.812;2023-02-01T00:18:56;15.20;;;9.10;;
72205;SDS011;60111;48.286;7.812;2023-02-01T00:21:31;11.80;;;8.23;;
72205;SDS011;60111;48.286;7.812;2023-02-01T00:24:04;12.37;;;8.43;;
72205;SDS011;60111;48.286;7.812;2023-02-01T00:26:37;12.35;;;8.50;;
72205;SDS011;60111;48.286;7.812;2023-02-01T00:29:13;21.27;;;11.30;;
72205;SDS011;60111;48.286;7.812;2023-02-01T00:31:49;15.98;;;10.15;;
72205;SDS011;60111;48.286;7.812;2023-02-01T00:34:22;12.50;;;8.65;;
72205;SDS011;60111;48.286;7.812;2023-02-01T00:36:55;12.05;;;8.63;;
72205;SDS011;60111;48.286;7.812;2023-02-01T00:39:27;14.07;;;8.70;;
72205;SDS011;60111;48.286;7.812;2023-02-01T00:42:00;12.78;;;8.83;;
72205;SDS011;60111;48.286;7.812;2023-02-01T00:44:33;15.38;;;9.23;;
72205;SDS011;60111;48.286;7.812;2023-02-01T00:49:59;13.43;;;8.18;;
72205;SDS011;60111;48.286;7.812;2023-02-01T00:52:32;17.40;;;8.93;;
72205;SDS011;60111;48.286;7.812;2023-02-01T00:55:04;11.67;;;8.43;;
72205;SDS011;60111;48.286;7.812;2023-02-01T00:57:37;12.40;;;8.33;;
72205;SDS011;60111;48.286;7.812;2023-02-01T01:00:10;13.15;;;8.98;;
72205;SDS011;60111;48.286;7.812;2023-02-01T01:02:43;15.03;;;8.58;;
72205;SDS011;60111;48.286;7.812;2023-02-01T01:05:15;12.80;;;8.63;;
72205;SDS011;60111;48.286;7.812;2023-02-01T01:07:48;16.87;;;8.63;;
72205;SDS011;60111;48.286;7.812;2023-02-01T01:10:20;15.30;;;8.88;;
72205;SDS011;60111;48.286;7.812;2023-02-01T01:12:53;10.43;;;7.65;;
72205;SDS011;60111;48.286;7.812;2023-02-01T01:15:25;14.07;;;8.70;;
72205;SDS011;60111;48.286;7.812;2023-02-01T01:17:58;13.03;;;8.25;;
72205;SDS011;60111;48.286;7.812;2023-02-01T01:20:31;11.83;;;7.90;;
72205;SDS011;60111;48.286;7.812;2023-02-01T01:23:05;11.95;;;8.00;;
72205;SDS011;60111;48.286;7.812;2023-02-01T01:25:39;12.00;;;8.10;;
72205;SDS011;60111;48.286;7.812;2023-02-01T01:28:12;15.08;;;7.92;;
72205;SDS011;60111;48.286;7.812;2023-02-01T01:30:44;13.08;;;8.60;;
72205;SDS011;60111;48.286;7.812;2023-02-01T01:33:17;13.43;;;8.50;;
72205;SDS011;60111;48.286;7.812;2023-02-01T01:35:50;12.37;;;8.10;;
72205;SDS011;60111;48.286;7.812;2023-02-01T01:38:22;11.97;;;7.83;;
72205;SDS011;60111;48.286;7.812;2023-02-01T01:40:55;10.05;;;7.37;;
72205;SDS011;60111;48.286;7.812;2023-02-01T01:43:44;14.43;;;8.18;;
72205;SDS011;60111;48.286;7.812;2023-02-01T01:46:21;11.60;;;8.05;;
72205;SDS011;60111;48.286;7.812;2023-02-01T01:49:05;11.78;;;7.47;;
72205;SDS011;60111;48.286;7.812;2023-02-01T01:51:55;11.80;;;8.10;;
72205;SDS011;60111;48.286;7.812;2023-02-01T01:54:29;12.80;;;7.85;;
72205;SDS011;60111;48.286;7.812;2023-02-01T01:57:09;13.83;;;7.83;;
72205;SDS011;60111;48.286;7.812;2023-02-01T01:59:40;14.58;;;8.08;;
72205;SDS011;60111;48.286;7.812;2023-02-01T02:02:14;39.63;;;14.47;;
72205;SDS011;60111;48.286;7.812;2023-02-01T02:04:47;46.33;;;18.27;;
72205;SDS011;60111;48.286;7.812;2023-02-01T02:07:23;25.88;;;13.00;;
72205;SDS011;60111;48.286;7.812;2023-02-01T02:09:56;23.30;;;13.03;;
72205;SDS011;60111;48.286;7.812;2023-02-01T02:12:29;23.67;;;13.70;;
72205;SDS011;60111;48.286;7.812;2023-02-01T02:15:02;16.07;;;10.10;;
72205;SDS011;60111;48.286;7.812;2023-02-01T02:17:42;17.57;;;8.90;;
72205;SDS011;60111;48.286;7.812;2023-02-01T02:23:38;11.15;;;7.65;;
72205;SDS011;60111;48.286;7.812;2023-02-01T02:35:16;12.20;;;7.50;;
72205;SDS011;60111;48.286;7.812;2023-02-01T02:37:54;12.58;;;7.20;;
72205;SDS011;60111;48.286;7.812;2023-02-01T02:40:33;10.55;;;7.00;;
72205;SDS011;60111;48.286;7.812;2023-02-01T02:43:11;13.72;;;8.38;;
72205;SDS011;60111;48.286;7.812;2023-02-01T02:49:15;10.10;;;7.35;;
72205;SDS011;60111;48.286;7.812;2023-02-01T02:51:55;11.45;;;7.58;;
72205;SDS011;60111;48.286;7.812;2023-02-01T02:54:45;9.25;;;6.75;;
72205;SDS011;60111;48.286;7.812;2023-02-01T02:57:26;9.73;;;6.62;;
72205;SDS011;60111;48.286;7.812;2023-02-01T03:00:18;9.60;;;6.30;;
72205;SDS011;60111;48.286;7.812;2023-02-01T03:03:11;9.65;;;6.55;;
72205;SDS011;60111;48.286;7.812;2023-02-01T03:06:02;9.48;;;6.33;;
72205;SDS011;60111;48.286;7.812;2023-02-01T03:08:36;8.98;;;6.33;;
72205;SDS011;60111;48.286;7.812;2023-02-01T03:11:09;11.93;;;6.87;;
